4AR9 weather

Scudder Airport
Jonesboro, Arkansas, United States

Public forecast

Using degrees Fahrenheit for public forecast. Weather courtesy of forecast.io.

METAR (pilot weather report)

Closest report is Jonesboro Municipal Airport, 3.3 nm (6.2 km) N. Retrieved 2019/05/22 17:53 UTC (1 hour ago):

KJBR 221753Z AUTO 16008KT 10SM SCT018 BKN026 BKN033 26/21 A2994 RMK AO2 SLP136 T02560211 10256 20183 50006

TAF (pilot weather forecast)

Closest forecast is Jonesboro Municipal Airport, 3.3 nm (6.2 km) N. Retrieved 2019/05/22 18:28 UTC (29 minutes ago):

TAF KJBR 221726Z 2218/2318 21010G15KT P6SM BKN030 OVC250 FM230100 21010KT P6SM SCT030 SCT250